KCDC/CDC METAR and TAF weather

Enter ICAO airport designator
Station Type Date Time Source
KCDC METAR 2022/06/30 00:53 UTC NOAA

KCDC 300053Z AUTO 24016G22KT 10SM FEW110 32/06 A3010 RMK AO2 PK WND 18027/0004 WSHFT 2358 SLP093 T03220056


Station Type Date Time Source
KCDC Decoded METAR 2022/06/30 00:53 UTC NOAA

CEDAR CITY MUN AIRPORT, UT, United States (KCDC) 37-42N 113-06W 1714M
Jun 29, 2022 - 08:53 PM EDT / 2022.06.30 0053 UTC
Wind: from the WSW (240 degrees) at 18 MPH (16 KT) gusting to 25 MPH (22 KT):0
Visibility: 10 mile(s):0
Sky conditions: mostly clear
Temperature: 90.0 F (32.2 C)
Dew Point: 42.1 F (5.6 C)
Relative Humidity: 18%
Pressure (altimeter): 30.1 in. Hg (1019 hPa)
ob: KCDC 300053Z AUTO 24016G22KT 10SM FEW110 32/06 A3010 RMK AO2 PK WND 18027/0004 WSHFT 2358 SLP093 T03220056
cycle: 1

Station Type Date Time Source
KCDC TAF 2022/06/29 21:27 UTC NOAA

TAF
AMD KCDC 292124Z 2921/3018 21017G27KT P6SM VCTS SCT080CB SCT100
TEMPO 2921/2922 -TSRA SCT080CB
FM300300 19010KT P6SM FEW100
FM301600 21012G20KT P6SM FEW250

Example: see airport list